sensor_id;sensor_type;location;lat;lon;timestamp;P1;durP1;ratioP1;P2;durP2;ratioP2
10645;SDS011;5371;49.782;9.932;2022-12-24T00:01:39;8.52;;;2.10;;
10645;SDS011;5371;49.782;9.932;2022-12-24T00:04:07;6.65;;;2.03;;
10645;SDS011;5371;49.782;9.932;2022-12-24T00:06:34;6.85;;;1.90;;
10645;SDS011;5371;49.782;9.932;2022-12-24T00:09:01;9.95;;;2.22;;
10645;SDS011;5371;49.782;9.932;2022-12-24T00:11:29;5.93;;;2.08;;
10645;SDS011;5371;49.782;9.932;2022-12-24T00:13:56;6.43;;;2.08;;
10645;SDS011;5371;49.782;9.932;2022-12-24T00:16:23;7.53;;;2.00;;
10645;SDS011;5371;49.782;9.932;2022-12-24T00:18:49;10.35;;;2.58;;
10645;SDS011;5371;49.782;9.932;2022-12-24T00:21:18;7.32;;;2.30;;
10645;SDS011;5371;49.782;9.932;2022-12-24T00:23:45;9.43;;;2.47;;
10645;SDS011;5371;49.782;9.932;2022-12-24T00:26:11;9.70;;;2.38;;
10645;SDS011;5371;49.782;9.932;2022-12-24T00:28:39;7.25;;;2.33;;
10645;SDS011;5371;49.782;9.932;2022-12-24T00:31:07;6.47;;;2.35;;
10645;SDS011;5371;49.782;9.932;2022-12-24T00:33:36;9.25;;;2.63;;
10645;SDS011;5371;49.782;9.932;2022-12-24T00:36:03;8.18;;;2.15;;
10645;SDS011;5371;49.782;9.932;2022-12-24T00:38:32;11.02;;;2.30;;
10645;SDS011;5371;49.782;9.932;2022-12-24T00:40:59;8.55;;;2.35;;
10645;SDS011;5371;49.782;9.932;2022-12-24T00:43:27;8.90;;;2.05;;
10645;SDS011;5371;49.782;9.932;2022-12-24T00:45:54;7.80;;;2.17;;
10645;SDS011;5371;49.782;9.932;2022-12-24T00:48:22;7.93;;;1.92;;
10645;SDS011;5371;49.782;9.932;2022-12-24T00:50:49;7.20;;;2.47;;
10645;SDS011;5371;49.782;9.932;2022-12-24T00:53:16;8.35;;;2.30;;
10645;SDS011;5371;49.782;9.932;2022-12-24T00:55:45;7.07;;;2.00;;
10645;SDS011;5371;49.782;9.932;2022-12-24T00:58:12;11.07;;;2.30;;
10645;SDS011;5371;49.782;9.932;2022-12-24T01:00:38;9.38;;;2.38;;
10645;SDS011;5371;49.782;9.932;2022-12-24T01:03:05;9.27;;;2.28;;
10645;SDS011;5371;49.782;9.932;2022-12-24T01:05:32;8.80;;;2.70;;
10645;SDS011;5371;49.782;9.932;2022-12-24T01:07:58;9.68;;;2.63;;
10645;SDS011;5371;49.782;9.932;2022-12-24T01:10:25;13.40;;;2.77;;
10645;SDS011;5371;49.782;9.932;2022-12-24T01:12:53;7.57;;;2.00;;
10645;SDS011;5371;49.782;9.932;2022-12-24T01:15:20;10.68;;;2.55;;
10645;SDS011;5371;49.782;9.932;2022-12-24T01:17:47;6.93;;;2.17;;
10645;SDS011;5371;49.782;9.932;2022-12-24T01:20:15;7.17;;;2.20;;
10645;SDS011;5371;49.782;9.932;2022-12-24T01:22:42;9.95;;;2.33;;
10645;SDS011;5371;49.782;9.932;2022-12-24T01:25:10;9.00;;;2.20;;
10645;SDS011;5371;49.782;9.932;2022-12-24T01:27:37;11.55;;;2.15;;
10645;SDS011;5371;49.782;9.932;2022-12-24T01:30:06;7.83;;;2.00;;
10645;SDS011;5371;49.782;9.932;2022-12-24T01:32:35;9.90;;;2.20;;
10645;SDS011;5371;49.782;9.932;2022-12-24T01:35:02;7.38;;;2.10;;
10645;SDS011;5371;49.782;9.932;2022-12-24T01:37:30;9.35;;;2.20;;
10645;SDS011;5371;49.782;9.932;2022-12-24T01:39:56;12.05;;;2.42;;
10645;SDS011;5371;49.782;9.932;2022-12-24T01:42:38;10.13;;;2.08;;
10645;SDS011;5371;49.782;9.932;2022-12-24T01:45:40;8.43;;;1.92;;
10645;SDS011;5371;49.782;9.932;2022-12-24T01:48:22;8.47;;;1.90;;
10645;SDS011;5371;49.782;9.932;2022-12-24T01:50:58;9.70;;;2.10;;
10645;SDS011;5371;49.782;9.932;2022-12-24T01:53:29;9.47;;;2.23;;
10645;SDS011;5371;49.782;9.932;2022-12-24T01:56:00;8.18;;;2.22;;
10645;SDS011;5371;49.782;9.932;2022-12-24T01:58:28;9.77;;;2.30;;
10645;SDS011;5371;49.782;9.932;2022-12-24T02:00:56;8.67;;;2.00;;
10645;SDS011;5371;49.782;9.932;2022-12-24T02:03:23;7.13;;;2.00;;
10645;SDS011;5371;49.782;9.932;2022-12-24T02:05:51;9.00;;;2.20;;
10645;SDS011;5371;49.782;9.932;2022-12-24T02:08:20;9.73;;;2.10;;
10645;SDS011;5371;49.782;9.932;2022-12-24T02:10:48;8.30;;;1.93;;
10645;SDS011;5371;49.782;9.932;2022-12-24T02:13:16;8.47;;;2.27;;
10645;SDS011;5371;49.782;9.932;2022-12-24T02:15:53;8.15;;;2.10;;
10645;SDS011;5371;49.782;9.932;2022-12-24T02:18:30;8.40;;;1.93;;
10645;SDS011;5371;49.782;9.932;2022-12-24T02:21:27;8.50;;;1.80;;
10645;SDS011;5371;49.782;9.932;2022-12-24T02:24:18;7.65;;;2.05;;
10645;SDS011;5371;49.782;9.932;2022-12-24T02:26:59;11.63;;;2.00;;
10645;SDS011;5371;49.782;9.932;2022-12-24T02:32:34;9.90;;;2.33;;
10645;SDS011;5371;49.782;9.932;2022-12-24T02:35:10;8.77;;;2.13;;
10645;SDS011;5371;49.782;9.932;2022-12-24T02:37:41;9.90;;;2.23;;
10645;SDS011;5371;49.782;9.932;2022-12-24T02:40:13;9.13;;;2.27;;
10645;SDS011;5371;49.782;9.932;2022-12-24T02:42:43;10.60;;;2.20;;
10645;SDS011;5371;49.782;9.932;2022-12-24T02:45:15;12.33;;;2.13;;
10645;SDS011;5371;49.782;9.932;2022-12-24T02:47:47;9.80;;;2.17;;
10645;SDS011;5371;49.782;9.932;2022-12-24T02:50:16;7.83;;;2.10;;
10645;SDS011;5371;49.782;9.932;2022-12-24T02:52:44;9.90;;;2.80;;
10645;SDS011;5371;49.782;9.932;2022-12-24T02:55:13;11.97;;;2.20;;
10645;SDS011;5371;49.782;9.932;2022-12-24T02:57:49;11.45;;;2.63;;
10645;SDS011;5371;49.782;9.932;2022-12-24T03:00:26;7.87;;;2.27;;
10645;SDS011;5371;49.782;9.932;2022-12-24T03:03:11;10.90;;;2.37;;
10645;SDS011;5371;49.782;9.932;2022-12-24T03:05:50;8.83;;;2.37;;
10645;SDS011;5371;49.782;9.932;2022-12-24T03:08:28;8.47;;;2.00;;
10645;SDS011;5371;49.782;9.932;2022-12-24T03:11:01;11.90;;;2.50;;
10645;SDS011;5371;49.782;9.932;2022-12-24T03:13:33;9.82;;;2.08;;
10645;SDS011;5371;49.782;9.932;2022-12-24T03:16:03;10.47;;;2.50;;
10645;SDS011;5371;49.782;9.932;2022-12-24T03:18:32;9.77;;;2.80;;
10645;SDS011;5371;49.782;9.932;2022-12-24T03:21:04;9.00;;;2.22;;
10645;SDS011;5371;49.782;9.932;2022-12-24T03:23:35;10.90;;;2.17;;
10645;SDS011;5371;49.782;9.932;2022-12-24T03:26:04;8.83;;;2.00;;
10645;SDS011;5371;49.782;9.932;2022-12-24T03:28:33;7.63;;;2.00;;
10645;SDS011;5371;49.782;9.932;2022-12-24T03:31:04;11.63;;;2.53;;
10645;SDS011;5371;49.782;9.932;2022-12-24T03:33:32;8.37;;;2.17;;
10645;SDS011;5371;49.782;9.932;2022-12-24T03:35:59;7.73;;;1.90;;
10645;SDS011;5371;49.782;9.932;2022-12-24T03:38:26;8.47;;;2.40;;
10645;SDS011;5371;49.782;9.932;2022-12-24T03:40:54;8.97;;;2.40;;
10645;SDS011;5371;49.782;9.932;2022-12-24T03:43:21;10.30;;;2.33;;
10645;SDS011;5371;49.782;9.932;2022-12-24T03:45:47;12.37;;;2.10;;
10645;SDS011;5371;49.782;9.932;2022-12-24T03:48:16;10.07;;;2.67;;
10645;SDS011;5371;49.782;9.932;2022-12-24T03:50:43;6.97;;;2.47;;
10645;SDS011;5371;49.782;9.932;2022-12-24T03:53:10;8.43;;;2.63;;
10645;SDS011;5371;49.782;9.932;2022-12-24T03:55:37;10.82;;;2.60;;
10645;SDS011;5371;49.782;9.932;2022-12-24T03:58:04;12.70;;;2.20;;
10645;SDS011;5371;49.782;9.932;2022-12-24T04:00:31;10.13;;;2.50;;
10645;SDS011;5371;49.782;9.932;2022-12-24T04:02:57;14.63;;;2.77;;
10645;SDS011;5371;49.782;9.932;2022-12-24T04:05:26;8.20;;;2.40;;
10645;SDS011;5371;49.782;9.932;2022-12-24T04:07:53;7.30;;;2.03;;
10645;SDS011;5371;49.782;9.932;2022-12-24T04:10:20;8.52;;;2.45;;
10645;SDS011;5371;49.782;9.932;2022-12-24T04:12:47;11.93;;;2.43;;
10645;SDS011;5371;49.782;9.932;2022-12-24T04:15:13;11.57;;;2.45;;
10645;SDS011;5371;49.782;9.932;2022-12-24T04:17:40;7.60;;;2.17;;
10645;SDS011;5371;49.782;9.932;2022-12-24T04:20:08;9.10;;;2.17;;
10645;SDS011;5371;49.782;9.932;2022-12-24T04:22:36;9.47;;;2.10;;
10645;SDS011;5371;49.782;9.932;2022-12-24T04:25:04;10.70;;;2.50;;
10645;SDS011;5371;49.782;9.932;2022-12-24T04:27:31;10.73;;;2.40;;
10645;SDS011;5371;49.782;9.932;2022-12-24T04:29:58;8.50;;;2.05;;
10645;SDS011;5371;49.782;9.932;2022-12-24T04:32:25;8.35;;;1.95;;
10645;SDS011;5371;49.782;9.932;2022-12-24T04:34:52;9.07;;;1.90;;
10645;SDS011;5371;49.782;9.932;2022-12-24T04:37:19;6.20;;;2.00;;
10645;SDS011;5371;49.782;9.932;2022-12-24T04:39:47;6.87;;;1.93;;
10645;SDS011;5371;49.782;9.932;2022-12-24T04:42:14;9.53;;;2.00;;
10645;SDS011;5371;49.782;9.932;2022-12-24T04:44:41;8.63;;;2.20;;
10645;SDS011;5371;49.782;9.932;2022-12-24T04:47:08;10.20;;;2.25;;
10645;SDS011;5371;49.782;9.932;2022-12-24T04:49:36;9.18;;;2.85;;
10645;SDS011;5371;49.782;9.932;2022-12-24T04:52:02;6.47;;;1.90;;
10645;SDS011;5371;49.782;9.932;2022-12-24T04:54:30;8.63;;;2.20;;
10645;SDS011;5371;49.782;9.932;2022-12-24T04:56:58;9.80;;;2.20;;
10645;SDS011;5371;49.782;9.932;2022-12-24T04:59:25;16.15;;;2.30;;
10645;SDS011;5371;49.782;9.932;2022-12-24T05:01:52;10.57;;;2.30;;
10645;SDS011;5371;49.782;9.932;2022-12-24T05:04:19;8.18;;;2.47;;
10645;SDS011;5371;49.782;9.932;2022-12-24T05:06:46;7.00;;;2.40;;
10645;SDS011;5371;49.782;9.932;2022-12-24T05:09:12;11.38;;;2.35;;
10645;SDS011;5371;49.782;9.932;2022-12-24T05:11:39;10.75;;;2.20;;
10645;SDS011;5371;49.782;9.932;2022-12-24T05:14:08;10.60;;;2.50;;
10645;SDS011;5371;49.782;9.932;2022-12-24T05:16:34;8.57;;;2.38;;
10645;SDS011;5371;49.782;9.932;2022-12-24T05:19:02;9.90;;;2.28;;
10645;SDS011;5371;49.782;9.932;2022-12-24T05:21:29;8.30;;;2.13;;
10645;SDS011;5371;49.782;9.932;2022-12-24T05:23:56;8.85;;;2.13;;
10645;SDS011;5371;49.782;9.932;2022-12-24T05:26:41;12.23;;;2.42;;
10645;SDS011;5371;49.782;9.932;2022-12-24T05:29:13;10.43;;;2.40;;
10645;SDS011;5371;49.782;9.932;2022-12-24T05:31:41;7.47;;;2.20;;
10645;SDS011;5371;49.782;9.932;2022-12-24T05:34:09;10.05;;;2.13;;
10645;SDS011;5371;49.782;9.932;2022-12-24T05:36:37;12.40;;;2.22;;
10645;SDS011;5371;49.782;9.932;2022-12-24T05:39:03;12.40;;;2.97;;
10645;SDS011;5371;49.782;9.932;2022-12-24T05:41:31;11.17;;;2.20;;
10645;SDS011;5371;49.782;9.932;2022-12-24T05:43:58;10.52;;;2.42;;
10645;SDS011;5371;49.782;9.932;2022-12-24T05:46:26;10.13;;;2.50;;
10645;SDS011;5371;49.782;9.932;2022-12-24T05:48:53;9.02;;;2.45;;
10645;SDS011;5371;49.782;9.932;2022-12-24T05:51:20;11.88;;;2.65;;
10645;SDS011;5371;49.782;9.932;2022-12-24T05:53:48;11.45;;;2.88;;
10645;SDS011;5371;49.782;9.932;2022-12-24T05:56:17;9.48;;;2.17;;
10645;SDS011;5371;49.782;9.932;2022-12-24T05:58:45;12.03;;;2.60;;
10645;SDS011;5371;49.782;9.932;2022-12-24T06:01:12;12.37;;;2.83;;
10645;SDS011;5371;49.782;9.932;2022-12-24T06:03:41;14.07;;;2.50;;
10645;SDS011;5371;49.782;9.932;2022-12-24T06:06:08;9.63;;;2.53;;
10645;SDS011;5371;49.782;9.932;2022-12-24T06:08:37;10.77;;;2.27;;
10645;SDS011;5371;49.782;9.932;2022-12-24T06:11:05;8.90;;;2.00;;
10645;SDS011;5371;49.782;9.932;2022-12-24T06:13:33;11.07;;;2.28;;
10645;SDS011;5371;49.782;9.932;2022-12-24T06:16:02;9.02;;;2.72;;
10645;SDS011;5371;49.782;9.932;2022-12-24T06:18:32;11.50;;;2.47;;
10645;SDS011;5371;49.782;9.932;2022-12-24T06:21:02;12.37;;;2.60;;
10645;SDS011;5371;49.782;9.932;2022-12-24T06:23:30;8.33;;;2.10;;
10645;SDS011;5371;49.782;9.932;2022-12-24T06:25:59;10.60;;;2.37;;
10645;SDS011;5371;49.782;9.932;2022-12-24T06:28:27;9.40;;;2.42;;
10645;SDS011;5371;49.782;9.932;2022-12-24T06:30:54;7.87;;;2.43;;
10645;SDS011;5371;49.782;9.932;2022-12-24T06:33:21;11.07;;;2.60;;
10645;SDS011;5371;49.782;9.932;2022-12-24T06:35:48;10.90;;;2.57;;
10645;SDS011;5371;49.782;9.932;2022-12-24T06:38:16;11.40;;;2.53;;
10645;SDS011;5371;49.782;9.932;2022-12-24T06:40:44;8.98;;;2.58;;
10645;SDS011;5371;49.782;9.932;2022-12-24T06:43:12;12.23;;;3.00;;
10645;SDS011;5371;49.782;9.932;2022-12-24T06:45:43;10.03;;;2.80;;
10645;SDS011;5371;49.782;9.932;2022-12-24T06:48:10;10.68;;;2.40;;
10645;SDS011;5371;49.782;9.932;2022-12-24T06:50:37;10.30;;;2.63;;
10645;SDS011;5371;49.782;9.932;2022-12-24T06:53:05;10.03;;;2.47;;
10645;SDS011;5371;49.782;9.932;2022-12-24T06:55:33;14.40;;;2.80;;
10645;SDS011;5371;49.782;9.932;2022-12-24T06:58:00;11.27;;;2.50;;
10645;SDS011;5371;49.782;9.932;2022-12-24T07:00:28;11.47;;;3.20;;
10645;SDS011;5371;49.782;9.932;2022-12-24T07:02:55;10.67;;;3.00;;
10645;SDS011;5371;49.782;9.932;2022-12-24T07:05:22;10.17;;;2.67;;
10645;SDS011;5371;49.782;9.932;2022-12-24T07:07:48;9.93;;;2.83;;
10645;SDS011;5371;49.782;9.932;2022-12-24T07:10:16;14.53;;;2.60;;
10645;SDS011;5371;49.782;9.932;2022-12-24T07:12:46;11.37;;;2.70;;
10645;SDS011;5371;49.782;9.932;2022-12-24T07:15:13;12.33;;;2.67;;
10645;SDS011;5371;49.782;9.932;2022-12-24T07:17:41;11.63;;;2.60;;
10645;SDS011;5371;49.782;9.932;2022-12-24T07:20:09;9.93;;;2.80;;
10645;SDS011;5371;49.782;9.932;2022-12-24T07:22:38;10.07;;;2.87;;
10645;SDS011;5371;49.782;9.932;2022-12-24T07:25:06;9.60;;;2.47;;
10645;SDS011;5371;49.782;9.932;2022-12-24T07:27:33;13.93;;;2.60;;
10645;SDS011;5371;49.782;9.932;2022-12-24T07:30:02;11.30;;;3.00;;
10645;SDS011;5371;49.782;9.932;2022-12-24T07:32:29;10.63;;;2.73;;
10645;SDS011;5371;49.782;9.932;2022-12-24T07:34:57;10.83;;;2.40;;
10645;SDS011;5371;49.782;9.932;2022-12-24T07:37:24;11.27;;;2.80;;
10645;SDS011;5371;49.782;9.932;2022-12-24T07:39:51;8.93;;;2.40;;
10645;SDS011;5371;49.782;9.932;2022-12-24T07:42:17;10.47;;;2.50;;
10645;SDS011;5371;49.782;9.932;2022-12-24T07:44:44;9.30;;;2.20;;
10645;SDS011;5371;49.782;9.932;2022-12-24T07:47:13;10.13;;;2.90;;
10645;SDS011;5371;49.782;9.932;2022-12-24T07:49:40;11.40;;;3.00;;
10645;SDS011;5371;49.782;9.932;2022-12-24T07:52:07;13.40;;;2.67;;
10645;SDS011;5371;49.782;9.932;2022-12-24T07:54:34;10.48;;;2.90;;
10645;SDS011;5371;49.782;9.932;2022-12-24T07:57:01;11.47;;;2.97;;
10645;SDS011;5371;49.782;9.932;2022-12-24T07:59:28;12.48;;;3.05;;
10645;SDS011;5371;49.782;9.932;2022-12-24T08:01:54;12.50;;;2.80;;
10645;SDS011;5371;49.782;9.932;2022-12-24T08:04:23;9.27;;;3.20;;
10645;SDS011;5371;49.782;9.932;2022-12-24T08:06:50;11.97;;;2.73;;
10645;SDS011;5371;49.782;9.932;2022-12-24T08:09:17;11.43;;;2.50;;
10645;SDS011;5371;49.782;9.932;2022-12-24T08:11:43;10.93;;;2.77;;
10645;SDS011;5371;49.782;9.932;2022-12-24T08:14:10;10.40;;;3.13;;
10645;SDS011;5371;49.782;9.932;2022-12-24T08:16:37;11.07;;;2.63;;
10645;SDS011;5371;49.782;9.932;2022-12-24T08:19:04;14.87;;;2.90;;
10645;SDS011;5371;49.782;9.932;2022-12-24T08:21:33;15.53;;;2.90;;
10645;SDS011;5371;49.782;9.932;2022-12-24T08:23:59;11.33;;;2.83;;
10645;SDS011;5371;49.782;9.932;2022-12-24T08:26:26;11.57;;;3.13;;
10645;SDS011;5371;49.782;9.932;2022-12-24T08:28:53;13.27;;;3.10;;
10645;SDS011;5371;49.782;9.932;2022-12-24T08:31:20;14.37;;;3.80;;
10645;SDS011;5371;49.782;9.932;2022-12-24T08:33:47;11.33;;;2.90;;
10645;SDS011;5371;49.782;9.932;2022-12-24T08:36:14;14.07;;;3.23;;
10645;SDS011;5371;49.782;9.932;2022-12-24T08:38:42;8.83;;;2.70;;
10645;SDS011;5371;49.782;9.932;2022-12-24T08:41:09;13.50;;;2.90;;
10645;SDS011;5371;49.782;9.932;2022-12-24T08:43:36;12.10;;;2.90;;
10645;SDS011;5371;49.782;9.932;2022-12-24T08:46:04;11.40;;;2.93;;
10645;SDS011;5371;49.782;9.932;2022-12-24T08:48:31;13.73;;;2.73;;
10645;SDS011;5371;49.782;9.932;2022-12-24T08:50:59;12.80;;;3.63;;
10645;SDS011;5371;49.782;9.932;2022-12-24T08:53:26;12.47;;;3.67;;
10645;SDS011;5371;49.782;9.932;2022-12-24T08:56:01;12.73;;;2.95;;
10645;SDS011;5371;49.782;9.932;2022-12-24T08:58:28;12.57;;;3.33;;
10645;SDS011;5371;49.782;9.932;2022-12-24T09:00:55;13.93;;;3.33;;
10645;SDS011;5371;49.782;9.932;2022-12-24T09:03:22;15.00;;;2.87;;
10645;SDS011;5371;49.782;9.932;2022-12-24T09:05:49;13.07;;;3.50;;
10645;SDS011;5371;49.782;9.932;2022-12-24T09:08:17;11.73;;;3.33;;
10645;SDS011;5371;49.782;9.932;2022-12-24T09:10:45;16.27;;;3.80;;
10645;SDS011;5371;49.782;9.932;2022-12-24T09:13:13;12.15;;;3.78;;
10645;SDS011;5371;49.782;9.932;2022-12-24T09:15:40;10.93;;;2.85;;
10645;SDS011;5371;49.782;9.932;2022-12-24T09:18:08;11.75;;;2.95;;
10645;SDS011;5371;49.782;9.932;2022-12-24T09:20:35;14.57;;;3.47;;
10645;SDS011;5371;49.782;9.932;2022-12-24T09:23:02;16.20;;;4.00;;
10645;SDS011;5371;49.782;9.932;2022-12-24T09:25:29;13.70;;;3.65;;
10645;SDS011;5371;49.782;9.932;2022-12-24T09:27:56;15.23;;;3.57;;
10645;SDS011;5371;49.782;9.932;2022-12-24T09:30:24;15.53;;;3.07;;
10645;SDS011;5371;49.782;9.932;2022-12-24T09:32:51;15.17;;;3.47;;
10645;SDS011;5371;49.782;9.932;2022-12-24T09:35:18;14.05;;;3.25;;
10645;SDS011;5371;49.782;9.932;2022-12-24T09:37:45;14.37;;;3.03;;
10645;SDS011;5371;49.782;9.932;2022-12-24T09:40:17;12.35;;;3.47;;
10645;SDS011;5371;49.782;9.932;2022-12-24T09:42:50;13.37;;;2.90;;
10645;SDS011;5371;49.782;9.932;2022-12-24T09:45:21;13.50;;;3.33;;
10645;SDS011;5371;49.782;9.932;2022-12-24T09:47:56;18.38;;;3.55;;
10645;SDS011;5371;49.782;9.932;2022-12-24T09:50:29;14.60;;;3.13;;
10645;SDS011;5371;49.782;9.932;2022-12-24T09:53:06;16.27;;;3.50;;
10645;SDS011;5371;49.782;9.932;2022-12-24T09:55:44;18.67;;;3.65;;
10645;SDS011;5371;49.782;9.932;2022-12-24T09:58:15;12.45;;;2.78;;
10645;SDS011;5371;49.782;9.932;2022-12-24T10:00:48;14.15;;;3.10;;
10645;SDS011;5371;49.782;9.932;2022-12-24T10:03:16;16.95;;;3.83;;
10645;SDS011;5371;49.782;9.932;2022-12-24T10:05:44;11.57;;;2.97;;
10645;SDS011;5371;49.782;9.932;2022-12-24T10:08:22;16.45;;;3.92;;
10645;SDS011;5371;49.782;9.932;2022-12-24T10:10:55;17.13;;;4.05;;
10645;SDS011;5371;49.782;9.932;2022-12-24T10:13:31;14.10;;;3.70;;
10645;SDS011;5371;49.782;9.932;2022-12-24T10:16:13;12.93;;;3.55;;
10645;SDS011;5371;49.782;9.932;2022-12-24T10:18:51;15.68;;;3.63;;
10645;SDS011;5371;49.782;9.932;2022-12-24T10:21:27;13.65;;;3.30;;
10645;SDS011;5371;49.782;9.932;2022-12-24T10:24:04;17.73;;;3.65;;
10645;SDS011;5371;49.782;9.932;2022-12-24T10:26:49;19.98;;;4.97;;
10645;SDS011;5371;49.782;9.932;2022-12-24T10:29:22;16.65;;;3.30;;
10645;SDS011;5371;49.782;9.932;2022-12-24T10:31:53;13.52;;;3.17;;
10645;SDS011;5371;49.782;9.932;2022-12-24T10:34:27;19.13;;;3.90;;
10645;SDS011;5371;49.782;9.932;2022-12-24T10:37:01;16.42;;;3.50;;
10645;SDS011;5371;49.782;9.932;2022-12-24T10:39:28;17.55;;;3.78;;
10645;SDS011;5371;49.782;9.932;2022-12-24T10:41:56;15.73;;;3.85;;
10645;SDS011;5371;49.782;9.932;2022-12-24T10:44:26;17.13;;;4.15;;
10645;SDS011;5371;49.782;9.932;2022-12-24T10:46:56;13.18;;;3.75;;
10645;SDS011;5371;49.782;9.932;2022-12-24T10:49:27;17.80;;;4.13;;
10645;SDS011;5371;49.782;9.932;2022-12-24T10:52:01;18.27;;;3.40;;
10645;SDS011;5371;49.782;9.932;2022-12-24T10:54:31;18.90;;;4.07;;
10645;SDS011;5371;49.782;9.932;2022-12-24T10:57:04;13.50;;;3.42;;
10645;SDS011;5371;49.782;9.932;2022-12-24T10:59:49;16.55;;;4.25;;
10645;SDS011;5371;49.782;9.932;2022-12-24T11:02:24;14.52;;;3.50;;
10645;SDS011;5371;49.782;9.932;2022-12-24T11:04:54;16.23;;;3.90;;
10645;SDS011;5371;49.782;9.932;2022-12-24T11:07:23;11.80;;;3.28;;
10645;SDS011;5371;49.782;9.932;2022-12-24T11:09:54;16.23;;;3.63;;
10645;SDS011;5371;49.782;9.932;2022-12-24T11:12:24;12.25;;;2.90;;
10645;SDS011;5371;49.782;9.932;2022-12-24T11:15:00;14.45;;;3.92;;
10645;SDS011;5371;49.782;9.932;2022-12-24T11:17:29;14.32;;;2.72;;
10645;SDS011;5371;49.782;9.932;2022-12-24T11:19:58;14.23;;;3.35;;
10645;SDS011;5371;49.782;9.932;2022-12-24T11:22:28;16.60;;;3.40;;
10645;SDS011;5371;49.782;9.932;2022-12-24T11:24:58;14.52;;;3.80;;
10645;SDS011;5371;49.782;9.932;2022-12-24T11:27:29;14.57;;;3.67;;
10645;SDS011;5371;49.782;9.932;2022-12-24T11:30:19;13.18;;;3.63;;
10645;SDS011;5371;49.782;9.932;2022-12-24T11:32:48;15.93;;;3.75;;
10645;SDS011;5371;49.782;9.932;2022-12-24T11:35:18;19.05;;;4.18;;
10645;SDS011;5371;49.782;9.932;2022-12-24T11:37:47;14.85;;;3.88;;
10645;SDS011;5371;49.782;9.932;2022-12-24T11:40:18;19.73;;;3.95;;
10645;SDS011;5371;49.782;9.932;2022-12-24T11:42:48;15.57;;;4.10;;
10645;SDS011;5371;49.782;9.932;2022-12-24T11:45:20;13.38;;;3.60;;
10645;SDS011;5371;49.782;9.932;2022-12-24T11:47:50;18.35;;;4.22;;
10645;SDS011;5371;49.782;9.932;2022-12-24T11:50:27;13.15;;;3.38;;
10645;SDS011;5371;49.782;9.932;2022-12-24T11:52:58;12.27;;;3.30;;
10645;SDS011;5371;49.782;9.932;2022-12-24T11:55:35;16.60;;;3.95;;
10645;SDS011;5371;49.782;9.932;2022-12-24T11:58:12;19.27;;;3.95;;
10645;SDS011;5371;49.782;9.932;2022-12-24T12:00:45;15.80;;;4.13;;
10645;SDS011;5371;49.782;9.932;2022-12-24T12:03:19;17.05;;;3.80;;
10645;SDS011;5371;49.782;9.932;2022-12-24T12:05:54;11.45;;;3.30;;
10645;SDS011;5371;49.782;9.932;2022-12-24T12:08:24;12.13;;;3.80;;
10645;SDS011;5371;49.782;9.932;2022-12-24T12:10:54;12.90;;;3.75;;
10645;SDS011;5371;49.782;9.932;2022-12-24T12:13:25;13.95;;;3.55;;
10645;SDS011;5371;49.782;9.932;2022-12-24T12:16:01;17.42;;;4.10;;
10645;SDS011;5371;49.782;9.932;2022-12-24T12:18:34;11.63;;;3.50;;
10645;SDS011;5371;49.782;9.932;2022-12-24T12:21:05;16.77;;;3.40;;
10645;SDS011;5371;49.782;9.932;2022-12-24T12:23:38;14.02;;;3.22;;
10645;SDS011;5371;49.782;9.932;2022-12-24T12:26:11;14.00;;;2.90;;
10645;SDS011;5371;49.782;9.932;2022-12-24T12:28:43;18.80;;;3.80;;
10645;SDS011;5371;49.782;9.932;2022-12-24T12:31:14;14.38;;;3.75;;
10645;SDS011;5371;49.782;9.932;2022-12-24T12:33:48;14.32;;;3.65;;
10645;SDS011;5371;49.782;9.932;2022-12-24T12:36:22;16.02;;;3.35;;
10645;SDS011;5371;49.782;9.932;2022-12-24T12:38:54;14.25;;;3.58;;
10645;SDS011;5371;49.782;9.932;2022-12-24T12:41:26;17.60;;;3.40;;
10645;SDS011;5371;49.782;9.932;2022-12-24T12:44:16;13.33;;;3.03;;
10645;SDS011;5371;49.782;9.932;2022-12-24T12:46:58;14.05;;;3.17;;
10645;SDS011;5371;49.782;9.932;2022-12-24T12:49:39;13.07;;;3.20;;
10645;SDS011;5371;49.782;9.932;2022-12-24T12:52:18;12.55;;;3.13;;
10645;SDS011;5371;49.782;9.932;2022-12-24T12:55:00;14.32;;;3.03;;
10645;SDS011;5371;49.782;9.932;2022-12-24T12:57:33;15.85;;;3.45;;
10645;SDS011;5371;49.782;9.932;2022-12-24T13:00:05;11.82;;;3.55;;
10645;SDS011;5371;49.782;9.932;2022-12-24T13:02:40;13.95;;;3.00;;
10645;SDS011;5371;49.782;9.932;2022-12-24T13:11:47;15.38;;;3.42;;
10645;SDS011;5371;49.782;9.932;2022-12-24T13:17:17;16.00;;;3.03;;
10645;SDS011;5371;49.782;9.932;2022-12-24T13:20:07;14.85;;;3.40;;
10645;SDS011;5371;49.782;9.932;2022-12-24T13:22:46;11.57;;;3.30;;
10645;SDS011;5371;49.782;9.932;2022-12-24T13:25:20;13.13;;;2.97;;
10645;SDS011;5371;49.782;9.932;2022-12-24T13:27:49;16.85;;;3.85;;
10645;SDS011;5371;49.782;9.932;2022-12-24T13:30:33;15.07;;;3.70;;
10645;SDS011;5371;49.782;9.932;2022-12-24T13:33:02;17.55;;;3.45;;
10645;SDS011;5371;49.782;9.932;2022-12-24T13:35:33;15.65;;;3.30;;
10645;SDS011;5371;49.782;9.932;2022-12-24T13:44:15;12.00;;;3.22;;
10645;SDS011;5371;49.782;9.932;2022-12-24T13:46:51;13.90;;;3.58;;
10645;SDS011;5371;49.782;9.932;2022-12-24T13:49:26;13.52;;;3.42;;
10645;SDS011;5371;49.782;9.932;2022-12-24T13:54:45;15.15;;;3.40;;
10645;SDS011;5371;49.782;9.932;2022-12-24T13:57:23;12.85;;;2.97;;
10645;SDS011;5371;49.782;9.932;2022-12-24T13:59:56;12.75;;;3.20;;
10645;SDS011;5371;49.782;9.932;2022-12-24T14:02:26;14.75;;;3.47;;
10645;SDS011;5371;49.782;9.932;2022-12-24T14:04:58;16.02;;;3.50;;
10645;SDS011;5371;49.782;9.932;2022-12-24T14:07:28;13.93;;;3.17;;
10645;SDS011;5371;49.782;9.932;2022-12-24T14:09:56;14.05;;;3.80;;
10645;SDS011;5371;49.782;9.932;2022-12-24T14:12:33;13.43;;;3.90;;
10645;SDS011;5371;49.782;9.932;2022-12-24T14:18:28;20.88;;;4.40;;
10645;SDS011;5371;49.782;9.932;2022-12-24T14:20:59;13.93;;;3.40;;
10645;SDS011;5371;49.782;9.932;2022-12-24T14:23:29;17.60;;;4.20;;
10645;SDS011;5371;49.782;9.932;2022-12-24T14:26:01;15.60;;;3.70;;
10645;SDS011;5371;49.782;9.932;2022-12-24T14:28:33;13.88;;;3.95;;
10645;SDS011;5371;49.782;9.932;2022-12-24T14:31:10;16.05;;;4.05;;
10645;SDS011;5371;49.782;9.932;2022-12-24T14:33:41;12.82;;;3.85;;
10645;SDS011;5371;49.782;9.932;2022-12-24T14:36:08;14.75;;;3.92;;
10645;SDS011;5371;49.782;9.932;2022-12-24T14:38:36;16.23;;;3.78;;
10645;SDS011;5371;49.782;9.932;2022-12-24T14:41:15;20.38;;;4.40;;
10645;SDS011;5371;49.782;9.932;2022-12-24T14:44:01;15.23;;;3.80;;
10645;SDS011;5371;49.782;9.932;2022-12-24T14:46:37;18.48;;;4.53;;
10645;SDS011;5371;49.782;9.932;2022-12-24T14:49:15;17.30;;;3.97;;
10645;SDS011;5371;49.782;9.932;2022-12-24T14:51:55;15.80;;;4.38;;
10645;SDS011;5371;49.782;9.932;2022-12-24T14:54:35;17.35;;;4.50;;
10645;SDS011;5371;49.782;9.932;2022-12-24T14:57:14;18.42;;;4.30;;
10645;SDS011;5371;49.782;9.932;2022-12-24T14:59:47;16.83;;;4.72;;
10645;SDS011;5371;49.782;9.932;2022-12-24T15:05:08;19.15;;;4.78;;
10645;SDS011;5371;49.782;9.932;2022-12-24T15:07:40;23.60;;;5.72;;
10645;SDS011;5371;49.782;9.932;2022-12-24T15:10:25;21.10;;;4.53;;
10645;SDS011;5371;49.782;9.932;2022-12-24T15:12:55;21.35;;;4.78;;
10645;SDS011;5371;49.782;9.932;2022-12-24T15:15:25;19.30;;;4.85;;
10645;SDS011;5371;49.782;9.932;2022-12-24T15:17:52;17.25;;;4.60;;
10645;SDS011;5371;49.782;9.932;2022-12-24T15:20:22;14.87;;;4.53;;
10645;SDS011;5371;49.782;9.932;2022-12-24T15:22:51;18.95;;;4.90;;
10645;SDS011;5371;49.782;9.932;2022-12-24T15:25:21;14.95;;;4.90;;
10645;SDS011;5371;49.782;9.932;2022-12-24T15:27:49;12.73;;;4.32;;
10645;SDS011;5371;49.782;9.932;2022-12-24T15:30:18;13.87;;;4.87;;
10645;SDS011;5371;49.782;9.932;2022-12-24T15:32:50;21.97;;;5.70;;
10645;SDS011;5371;49.782;9.932;2022-12-24T15:35:29;19.23;;;6.37;;
10645;SDS011;5371;49.782;9.932;2022-12-24T15:37:58;17.30;;;7.20;;
10645;SDS011;5371;49.782;9.932;2022-12-24T15:40:26;24.47;;;7.67;;